createdAt,value
2024-04-18T00:00:05.570Z,5.23
2024-04-18T00:00:15.614Z,5.05
2024-04-18T00:00:35.564Z,5.05
2024-04-18T00:00:45.736Z,5.14
2024-04-18T00:00:55.557Z,5.16
2024-04-18T00:01:05.675Z,5.07
2024-04-18T00:01:16.537Z,4.98
2024-04-18T00:01:25.517Z,5.01
2024-04-18T00:01:45.595Z,5.13
2024-04-18T00:01:55.532Z,5.07
2024-04-18T00:02:05.486Z,5.17
2024-04-18T00:02:16.379Z,5.28
2024-04-18T00:02:25.673Z,5.16
2024-04-18T00:02:35.467Z,5.04
2024-04-18T00:02:55.504Z,5.07
2024-04-18T00:03:06.406Z,5.02
2024-04-18T00:03:15.597Z,5.02
2024-04-18T00:03:25.542Z,5.04
2024-04-18T00:03:35.499Z,4.99
2024-04-18T00:03:45.534Z,4.96
2024-04-18T00:04:05.643Z,5.10
2024-04-18T00:04:16.574Z,5.09
2024-04-18T00:04:25.652Z,5.22
2024-04-18T00:04:35.556Z,5.14
2024-04-18T00:04:45.557Z,5.09
2024-04-18T00:04:56.592Z,5.04
2024-04-18T00:05:15.539Z,5.14
2024-04-18T00:05:25.507Z,4.83
2024-04-18T00:05:35.495Z,5.05
2024-04-18T00:05:46.464Z,4.89
2024-04-18T00:05:55.575Z,4.95
2024-04-18T00:06:05.519Z,5.13
2024-04-18T00:06:25.645Z,5.07
2024-04-18T00:06:35.497Z,5.07
2024-04-18T00:06:45.522Z,5.09
2024-04-18T00:06:55.471Z,5.05
2024-04-18T00:07:05.505Z,4.92
2024-04-18T00:07:15.502Z,5.12
2024-04-18T00:07:25.519Z,5.02
2024-04-18T00:07:35.543Z,5.05
2024-04-18T00:07:55.480Z,5.05
2024-04-18T00:08:05.502Z,5.19
2024-04-18T00:08:15.498Z,5.12
2024-04-18T00:08:25.509Z,5.01
2024-04-18T00:08:35.586Z,5.12
2024-04-18T00:08:45.450Z,5.04
2024-04-18T00:08:55.455Z,4.95
2024-04-18T00:09:06.352Z,4.94
2024-04-18T00:09:16.416Z,5.13
2024-04-18T00:09:25.533Z,5.09
2024-04-18T00:09:45.504Z,5.17
2024-04-18T00:09:55.430Z,5.05
2024-04-18T00:10:06.413Z,5.04
2024-04-18T00:10:15.493Z,5.10
2024-04-18T00:10:25.473Z,5.17
2024-04-18T00:10:35.536Z,5.05
2024-04-18T00:10:45.489Z,5.01
2024-04-18T00:10:55.481Z,5.04
2024-04-18T00:11:15.495Z,5.10
2024-04-18T00:11:25.583Z,5.05
2024-04-18T00:11:35.476Z,5.13
2024-04-18T00:11:47.553Z,5.09
2024-04-18T00:11:55.461Z,5.14
2024-04-18T00:12:05.445Z,4.99
2024-04-18T00:12:15.480Z,5.16
2024-04-18T00:12:25.617Z,4.95
2024-04-18T00:12:35.996Z,4.95
2024-04-18T00:12:55.449Z,5.01
2024-04-18T00:13:05.436Z,5.10
2024-04-18T00:13:15.465Z,5.09
2024-04-18T00:13:25.463Z,5.07
2024-04-18T00:13:35.471Z,5.02
2024-04-18T00:13:45.543Z,5.01
2024-04-18T00:14:05.479Z,4.94
2024-04-18T00:14:15.436Z,5.05
2024-04-18T00:14:25.428Z,5.01
2024-04-18T00:14:35.430Z,4.99
2024-04-18T00:14:46.487Z,4.99
2024-04-18T00:14:55.418Z,4.86
2024-04-18T00:15:15.492Z,4.99
2024-04-18T00:15:25.467Z,4.96
2024-04-18T00:15:35.500Z,4.95
2024-04-18T00:15:45.482Z,4.94
2024-04-18T00:15:56.467Z,5.10
2024-04-18T00:16:05.456Z,5.04
2024-04-18T00:16:25.419Z,5.07
2024-04-18T00:16:35.452Z,4.96
2024-04-18T00:16:45.451Z,4.95
2024-04-18T00:16:55.623Z,4.95
2024-04-18T00:17:05.624Z,5.04
2024-04-18T00:17:15.454Z,4.95
2024-04-18T00:17:35.478Z,4.99
2024-04-18T00:17:45.551Z,4.86
2024-04-18T00:17:55.503Z,4.91
2024-04-18T00:18:05.449Z,4.86
2024-04-18T00:18:15.443Z,4.98
2024-04-18T00:18:25.664Z,5.05
2024-04-18T00:18:45.556Z,4.84
2024-04-18T00:18:56.515Z,4.92
2024-04-18T00:19:05.422Z,5.01
2024-04-18T00:19:15.401Z,4.83
2024-04-18T00:19:25.431Z,4.96
2024-04-18T00:19:35.580Z,4.96
2024-04-18T00:19:45.494Z,4.77
2024-04-18T00:20:05.409Z,4.88
2024-04-18T00:20:15.421Z,4.95
2024-04-18T00:20:25.426Z,4.86
2024-04-18T00:20:35.385Z,4.76
2024-04-18T00:20:45.413Z,5.05
2024-04-18T00:20:55.456Z,5.01
2024-04-18T00:21:15.458Z,4.72
2024-04-18T00:21:25.455Z,4.83
2024-04-18T00:21:35.431Z,4.92
2024-04-18T00:21:45.526Z,4.99
2024-04-18T00:21:55.448Z,4.89
2024-04-18T00:22:05.399Z,4.70
2024-04-18T00:22:25.545Z,4.77
2024-04-18T00:22:35.412Z,4.75
2024-04-18T00:22:45.410Z,4.86
2024-04-18T00:22:55.999Z,4.77
2024-04-18T00:23:05.929Z,4.92
2024-04-18T00:23:15.390Z,4.75
2024-04-18T00:23:35.412Z,4.79
2024-04-18T00:23:45.411Z,4.95
2024-04-18T00:23:55.376Z,4.84
2024-04-18T00:24:05.395Z,4.77
2024-04-18T00:24:15.461Z,4.91
2024-04-18T00:24:25.508Z,4.96
2024-04-18T00:24:35.555Z,4.76
2024-04-18T00:24:45.541Z,4.72
2024-04-18T00:24:55.403Z,4.98
2024-04-18T00:25:05.394Z,4.88
2024-04-18T00:25:15.451Z,4.73
2024-04-18T00:25:35.445Z,4.80
2024-04-18T00:25:45.399Z,4.86
2024-04-18T00:25:55.368Z,4.86
2024-04-18T00:26:05.394Z,4.70
2024-04-18T00:26:15.394Z,4.89
2024-04-18T00:26:25.380Z,4.95
2024-04-18T00:26:35.449Z,4.89
2024-04-18T00:26:55.398Z,4.89
2024-04-18T00:27:05.407Z,5.01
2024-04-18T00:27:15.938Z,4.73
2024-04-18T00:27:25.521Z,4.89
2024-04-18T00:27:35.503Z,4.70
2024-04-18T00:27:45.442Z,4.80
2024-04-18T00:28:05.416Z,4.79
2024-04-18T00:28:15.380Z,4.83
2024-04-18T00:28:25.367Z,4.72
2024-04-18T00:28:35.384Z,4.84
2024-04-18T00:28:45.363Z,4.89
2024-04-18T00:28:55.381Z,4.69
2024-04-18T00:29:15.378Z,4.70
2024-04-18T00:29:25.431Z,4.57
2024-04-18T00:29:35.561Z,4.55
2024-04-18T00:29:45.382Z,4.76
2024-04-18T00:29:55.452Z,4.65
2024-04-18T00:30:05.384Z,4.72
2024-04-18T00:30:25.371Z,4.75
2024-04-18T00:30:35.386Z,4.73
2024-04-18T00:30:45.399Z,4.67
2024-04-18T00:30:55.389Z,4.70
2024-04-18T00:31:05.373Z,4.47
2024-04-18T00:31:15.355Z,4.50
2024-04-18T00:31:25.911Z,4.46
2024-04-18T00:31:45.414Z,4.51
2024-04-18T00:31:55.377Z,4.61
2024-04-18T00:32:05.432Z,4.59
2024-04-18T00:32:15.513Z,4.57
2024-04-18T00:32:25.334Z,4.50
2024-04-18T00:32:35.622Z,4.44
2024-04-18T00:32:45.451Z,4.42
2024-04-18T00:32:55.426Z,4.37
2024-04-18T00:33:05.433Z,4.40
2024-04-18T00:33:15.513Z,4.51
2024-04-18T00:33:25.406Z,4.34
2024-04-18T00:33:45.475Z,4.25
2024-04-18T00:33:55.391Z,4.46
2024-04-18T00:34:05.458Z,4.36
2024-04-18T00:34:15.390Z,4.28
2024-04-18T00:34:25.359Z,4.32
2024-04-18T00:34:35.346Z,4.28
2024-04-18T00:34:55.390Z,4.32
2024-04-18T00:35:05.962Z,4.40
2024-04-18T00:35:15.325Z,4.22
2024-04-18T00:35:25.353Z,4.36
2024-04-18T00:35:35.385Z,4.34
2024-04-18T00:35:45.380Z,4.21
2024-04-18T00:36:05.360Z,4.32
2024-04-18T00:36:15.337Z,4.33
2024-04-18T00:36:25.379Z,4.25
2024-04-18T00:36:35.387Z,4.19
2024-04-18T00:36:45.362Z,4.36
2024-04-18T00:36:55.375Z,4.36
2024-04-18T00:37:05.395Z,4.00
2024-04-18T00:37:25.944Z,4.18
2024-04-18T00:37:35.353Z,4.12
2024-04-18T00:37:45.437Z,4.10
2024-04-18T00:37:55.353Z,4.18
2024-04-18T00:38:05.607Z,4.22
2024-04-18T00:38:15.411Z,4.07
2024-04-18T00:38:35.371Z,4.16
2024-04-18T00:38:45.346Z,4.12
2024-04-18T00:38:55.360Z,4.01
2024-04-18T00:39:05.354Z,4.22
2024-04-18T00:39:15.377Z,4.12
2024-04-18T00:39:25.466Z,4.15
2024-04-18T00:39:46.003Z,4.19
2024-04-18T00:39:55.564Z,3.90
2024-04-18T00:40:05.331Z,3.92
2024-04-18T00:40:15.342Z,4.18
2024-04-18T00:40:25.334Z,4.03
2024-04-18T00:40:35.373Z,4.21
2024-04-18T00:40:55.304Z,4.06
2024-04-18T00:41:05.320Z,4.12
2024-04-18T00:41:15.342Z,4.21
2024-04-18T00:41:25.382Z,4.15
2024-04-18T00:41:35.310Z,4.01
2024-04-18T00:41:45.886Z,4.18
2024-04-18T00:41:55.487Z,4.06
2024-04-18T00:42:05.317Z,4.28
2024-04-18T00:42:15.357Z,4.18
2024-04-18T00:42:35.338Z,4.00
2024-04-18T00:42:45.492Z,4.16
2024-04-18T00:42:55.308Z,4.24
2024-04-18T00:43:05.352Z,4.12
2024-04-18T00:43:15.350Z,4.03
2024-04-18T00:43:25.325Z,4.15
2024-04-18T00:43:35.360Z,4.10
2024-04-18T00:43:55.922Z,4.25
2024-04-18T00:44:05.325Z,4.24
2024-04-18T00:44:15.314Z,4.08
2024-04-18T00:44:25.312Z,4.16
2024-04-18T00:44:35.315Z,4.33
2024-04-18T00:44:45.329Z,4.14
2024-04-18T00:45:05.320Z,4.16
2024-04-18T00:45:15.369Z,4.14
2024-04-18T00:45:25.324Z,4.14
2024-04-18T00:45:35.435Z,4.14
2024-04-18T00:45:45.457Z,4.00
2024-04-18T00:45:55.348Z,4.24
2024-04-18T00:46:05.945Z,4.01
2024-04-18T00:46:15.289Z,4.15
2024-04-18T00:46:35.307Z,4.33
2024-04-18T00:46:45.297Z,4.12
2024-04-18T00:46:55.285Z,4.24
2024-04-18T00:47:05.289Z,4.08
2024-04-18T00:47:15.276Z,4.21
2024-04-18T00:47:25.381Z,4.22
2024-04-18T00:47:45.375Z,4.22
2024-04-18T00:47:55.382Z,4.18
2024-04-18T00:48:05.988Z,4.29
2024-04-18T00:48:15.698Z,4.08
2024-04-18T00:48:25.373Z,4.21
2024-04-18T00:48:35.506Z,4.16
2024-04-18T00:48:45.796Z,4.26
2024-04-18T00:49:05.321Z,4.36
2024-04-18T00:49:15.382Z,4.34
2024-04-18T00:49:25.389Z,4.28
2024-04-18T00:49:35.322Z,4.34
2024-04-18T00:49:45.290Z,4.06
2024-04-18T00:49:55.315Z,4.03
2024-04-18T00:50:05.300Z,4.08
2024-04-18T00:50:25.275Z,4.18
2024-04-18T00:50:35.287Z,4.14
2024-04-18T00:50:45.284Z,4.14
2024-04-18T00:50:55.274Z,4.16
2024-04-18T00:51:05.312Z,4.36
2024-04-18T00:51:15.360Z,4.19
2024-04-18T00:51:35.297Z,4.15
2024-04-18T00:51:45.332Z,4.26
2024-04-18T00:51:55.277Z,4.21
2024-04-18T00:52:05.267Z,4.22
2024-04-18T00:52:15.956Z,4.21
2024-04-18T00:52:25.266Z,4.12
2024-04-18T00:52:45.390Z,4.25
2024-04-18T00:52:55.274Z,4.29
2024-04-18T00:53:05.281Z,4.10
2024-04-18T00:53:15.290Z,4.26
2024-04-18T00:53:25.269Z,4.37
2024-04-18T00:53:35.250Z,4.21
2024-04-18T00:53:55.348Z,4.21
2024-04-18T00:54:05.266Z,4.14
2024-04-18T00:54:15.317Z,4.14
2024-04-18T00:54:25.380Z,4.22
2024-04-18T00:54:35.620Z,4.21
2024-04-18T00:54:45.290Z,4.07
2024-04-18T00:55:05.287Z,4.28
2024-04-18T00:55:15.947Z,4.21
2024-04-18T00:55:25.287Z,4.28
2024-04-18T00:55:35.307Z,4.29
2024-04-18T00:55:45.254Z,4.32
2024-04-18T00:55:55.284Z,4.10
2024-04-18T00:56:18.068Z,4.06
2024-04-18T00:56:25.903Z,4.26
2024-04-18T00:56:35.388Z,4.16
2024-04-18T00:56:45.276Z,4.26
2024-04-18T00:56:55.271Z,4.32
2024-04-18T00:57:05.286Z,4.07
2024-04-18T00:57:25.299Z,4.08
2024-04-18T00:57:35.345Z,4.08
2024-04-18T00:57:45.364Z,4.22
2024-04-18T00:57:55.263Z,4.10
2024-04-18T00:58:05.235Z,3.98
2024-04-18T00:58:15.258Z,4.24
2024-04-18T00:58:35.340Z,4.14
2024-04-18T00:58:45.405Z,4.06
2024-04-18T00:58:55.310Z,4.22
2024-04-18T00:59:05.291Z,4.21
2024-04-18T00:59:15.269Z,4.16
2024-04-18T00:59:25.249Z,4.15
2024-04-18T00:59:45.232Z,4.06
2024-04-18T00:59:55.227Z,4.18
2024-04-18T01:00:05.267Z,4.04
2024-04-18T01:00:15.327Z,4.07
2024-04-18T01:00:25.317Z,3.96
2024-04-18T01:00:36.007Z,4.10
2024-04-18T01:00:45.541Z,4.15
2024-04-18T01:01:05.358Z,4.24
2024-04-18T01:01:15.400Z,4.14
2024-04-18T01:01:25.438Z,4.18
2024-04-18T01:01:35.297Z,4.15
2024-04-18T01:01:45.229Z,4.10
2024-04-18T01:01:55.225Z,4.03
2024-04-18T01:02:15.303Z,4.01
2024-04-18T01:02:25.222Z,4.18
2024-04-18T01:02:35.242Z,4.07
2024-04-18T01:02:45.299Z,4.04
2024-04-18T01:02:55.226Z,4.22
2024-04-18T01:03:05.270Z,4.01
2024-04-18T01:03:15.298Z,4.15
2024-04-18T01:03:35.405Z,4.07
2024-04-18T01:03:45.308Z,4.06
2024-04-18T01:03:55.361Z,4.16
2024-04-18T01:04:05.359Z,4.18
2024-04-18T01:04:15.603Z,4.04
2024-04-18T01:04:25.319Z,4.12
2024-04-18T01:04:45.299Z,4.14
2024-04-18T01:04:55.272Z,3.90
2024-04-18T01:05:05.293Z,4.07
2024-04-18T01:05:15.260Z,4.18
2024-04-18T01:05:25.204Z,4.24
2024-04-18T01:05:35.257Z,4.26
2024-04-18T01:05:55.218Z,4.07
2024-04-18T01:06:05.216Z,4.03
2024-04-18T01:06:15.250Z,4.12
2024-04-18T01:06:25.252Z,4.15
2024-04-18T01:06:35.445Z,4.18
2024-04-18T01:06:45.303Z,4.01
2024-04-18T01:06:55.348Z,4.07
2024-04-18T01:07:15.216Z,4.10
2024-04-18T01:07:25.234Z,4.14
2024-04-18T01:07:35.911Z,4.12
2024-04-18T01:07:45.191Z,4.06
2024-04-18T01:07:55.226Z,4.10
2024-04-18T01:08:05.248Z,4.14
2024-04-18T01:08:15.205Z,4.04
2024-04-18T01:08:35.193Z,3.96
2024-04-18T01:08:45.215Z,4.29
2024-04-18T01:08:55.252Z,4.18
2024-04-18T01:09:05.205Z,4.01
2024-04-18T01:09:15.238Z,4.10
2024-04-18T01:09:25.910Z,4.37
2024-04-18T01:09:45.281Z,4.07
2024-04-18T01:09:55.179Z,4.18
2024-04-18T01:10:05.201Z,3.94
2024-04-18T01:10:15.197Z,4.04
2024-04-18T01:10:25.194Z,4.22
2024-04-18T01:10:35.236Z,4.21
2024-04-18T01:10:45.230Z,4.08
2024-04-18T01:10:55.899Z,4.06
2024-04-18T01:11:05.293Z,4.14
2024-04-18T01:11:25.218Z,3.97
2024-04-18T01:11:35.307Z,3.92
2024-04-18T01:11:45.282Z,4.22
2024-04-18T01:11:55.256Z,4.08
2024-04-18T01:12:05.204Z,4.15
2024-04-18T01:12:15.185Z,4.15
2024-04-18T01:12:35.325Z,4.03
2024-04-18T01:12:45.314Z,4.00
2024-04-18T01:12:55.172Z,4.08
2024-04-18T01:13:05.230Z,4.03
2024-04-18T01:13:15.175Z,4.06
2024-04-18T01:13:25.186Z,4.15
2024-04-18T01:13:45.230Z,4.03
2024-04-18T01:13:55.211Z,4.15
2024-04-18T01:14:05.200Z,4.16
2024-04-18T01:14:15.167Z,4.00
2024-04-18T01:14:25.174Z,3.98
2024-04-18T01:14:35.197Z,3.90
2024-04-18T01:14:55.922Z,4.00
2024-04-18T01:15:05.205Z,3.98
2024-04-18T01:15:15.307Z,4.07
2024-04-18T01:15:25.200Z,4.06
2024-04-18T01:15:35.261Z,4.14
2024-04-18T01:15:45.246Z,4.01
2024-04-18T01:16:05.199Z,3.85
2024-04-18T01:16:15.157Z,4.15
2024-04-18T01:16:25.187Z,4.00
2024-04-18T01:16:35.239Z,4.07
2024-04-18T01:16:45.155Z,4.06
2024-04-18T01:16:55.211Z,3.98
2024-04-18T01:17:06.123Z,4.16
2024-04-18T01:17:15.992Z,4.04
2024-04-18T01:17:35.262Z,4.10
2024-04-18T01:17:45.272Z,4.16
2024-04-18T01:17:55.275Z,3.92
2024-04-18T01:18:05.255Z,3.97
2024-04-18T01:18:15.382Z,3.90
2024-04-18T01:18:25.212Z,3.94
2024-04-18T01:18:45.242Z,3.92
2024-04-18T01:18:55.229Z,4.01
2024-04-18T01:19:05.214Z,3.85
2024-04-18T01:19:15.190Z,3.97
2024-04-18T01:19:25.213Z,4.06
2024-04-18T01:19:35.954Z,3.86
2024-04-18T01:19:45.238Z,4.01
2024-04-18T01:20:05.917Z,4.04
2024-04-18T01:20:15.203Z,3.92
2024-04-18T01:20:25.142Z,4.06
2024-04-18T01:20:35.138Z,3.98
2024-04-18T01:20:45.956Z,3.98
2024-04-18T01:20:55.146Z,3.96
2024-04-18T01:21:15.916Z,4.01
2024-04-18T01:21:28.078Z,4.12
2024-04-18T01:21:35.273Z,4.12
2024-04-18T01:21:45.215Z,3.96
2024-04-18T01:21:55.169Z,3.96
2024-04-18T01:22:06.139Z,4.01
2024-04-18T01:22:25.177Z,3.92
2024-04-18T01:22:35.176Z,4.04
2024-04-18T01:22:45.140Z,4.14
2024-04-18T01:22:55.125Z,3.92
2024-04-18T01:23:05.132Z,4.01
2024-04-18T01:23:15.138Z,3.97
2024-04-18T01:23:25.931Z,4.01
2024-04-18T01:23:35.216Z,3.80
2024-04-18T01:23:55.146Z,4.01
2024-04-18T01:24:05.121Z,3.96
2024-04-18T01:24:15.193Z,3.92
2024-04-18T01:24:25.185Z,3.94
2024-04-18T01:24:35.214Z,4.03
2024-04-18T01:24:45.302Z,4.00
2024-04-18T01:24:55.313Z,4.01
2024-04-18T01:25:05.174Z,4.14
2024-04-18T01:25:25.174Z,4.01
2024-04-18T01:25:35.912Z,4.00
2024-04-18T01:25:45.252Z,3.97
2024-04-18T01:25:55.185Z,3.94
2024-04-18T01:26:05.121Z,4.03
2024-04-18T01:26:15.138Z,4.04
2024-04-18T01:26:35.128Z,3.89
2024-04-18T01:26:45.163Z,3.94
2024-04-18T01:26:55.169Z,3.92
2024-04-18T01:27:05.140Z,4.10
2024-04-18T01:27:15.175Z,3.96
2024-04-18T01:27:25.149Z,3.97
2024-04-18T01:27:45.246Z,3.94
2024-04-18T01:27:55.108Z,3.79
2024-04-18T01:28:05.104Z,3.98
2024-04-18T01:28:15.140Z,3.82
2024-04-18T01:28:25.167Z,3.86
2024-04-18T01:28:35.115Z,3.96
2024-04-18T01:28:55.189Z,3.98
2024-04-18T01:29:05.147Z,3.89
2024-04-18T01:29:15.170Z,3.70
2024-04-18T01:29:25.113Z,3.82
2024-04-18T01:29:35.144Z,3.89
2024-04-18T01:29:45.336Z,3.92
2024-04-18T01:29:55.241Z,3.98
2024-04-18T01:30:05.210Z,3.86
2024-04-18T01:30:15.191Z,3.90
2024-04-18T01:30:25.254Z,3.86
2024-04-18T01:30:35.185Z,3.98
2024-04-18T01:30:55.147Z,3.83
2024-04-18T01:31:05.111Z,3.83
2024-04-18T01:31:15.165Z,3.83
2024-04-18T01:31:25.091Z,4.01
2024-04-18T01:31:35.128Z,3.76
2024-04-18T01:31:45.115Z,3.86
2024-04-18T01:31:55.938Z,3.80
2024-04-18T01:32:05.104Z,3.94
2024-04-18T01:32:25.124Z,3.86
2024-04-18T01:32:35.226Z,3.83
2024-04-18T01:32:45.138Z,3.89
2024-04-18T01:32:55.197Z,3.79
2024-04-18T01:33:05.136Z,3.79
2024-04-18T01:33:15.320Z,3.89
2024-04-18T01:33:26.407Z,3.89
2024-04-18T01:33:45.191Z,3.98
2024-04-18T01:33:55.243Z,4.03
2024-04-18T01:34:05.210Z,3.82
2024-04-18T01:34:15.210Z,3.86
2024-04-18T01:34:25.178Z,3.88
2024-04-18T01:34:35.256Z,4.10
2024-04-18T01:34:55.091Z,3.90
2024-04-18T01:35:05.080Z,3.76
2024-04-18T01:35:15.124Z,3.90
2024-04-18T01:35:25.141Z,4.04
2024-04-18T01:35:35.113Z,3.79
2024-04-18T01:35:45.097Z,3.88
2024-04-18T01:35:55.118Z,3.78
2024-04-18T01:36:08.004Z,3.83
2024-04-18T01:36:25.107Z,3.88
2024-04-18T01:36:35.107Z,3.88
2024-04-18T01:36:45.184Z,3.79
2024-04-18T01:36:55.145Z,3.90
2024-04-18T01:37:05.090Z,3.88
2024-04-18T01:37:15.109Z,3.90
2024-04-18T01:37:25.103Z,3.79
2024-04-18T01:37:45.113Z,3.67
2024-04-18T01:37:55.981Z,3.86
2024-04-18T01:38:05.086Z,3.67
2024-04-18T01:38:15.970Z,3.75
2024-04-18T01:38:25.102Z,3.75
2024-04-18T01:38:35.104Z,3.62
2024-04-18T01:38:55.076Z,3.71
2024-04-18T01:39:05.075Z,3.86
2024-04-18T01:39:15.951Z,3.80
2024-04-18T01:39:25.131Z,3.75
2024-04-18T01:39:35.215Z,3.72
2024-04-18T01:39:45.347Z,3.68
2024-04-18T01:40:05.103Z,3.75
2024-04-18T01:40:15.929Z,3.82
2024-04-18T01:40:25.531Z,3.86
2024-04-18T01:40:35.095Z,3.78
2024-04-18T01:40:45.116Z,3.86
2024-04-18T01:40:55.057Z,3.64
2024-04-18T01:41:15.101Z,3.80
2024-04-18T01:41:26.018Z,3.75
2024-04-18T01:41:35.091Z,3.65
2024-04-18T01:41:45.140Z,3.76
2024-04-18T01:41:55.075Z,3.64
2024-04-18T01:42:05.104Z,3.72
2024-04-18T01:42:15.153Z,3.79
2024-04-18T01:42:35.084Z,3.70
2024-04-18T01:42:45.185Z,3.78
2024-04-18T01:42:55.048Z,3.72
2024-04-18T01:43:05.130Z,3.64
2024-04-18T01:43:15.137Z,3.68
2024-04-18T01:43:25.093Z,3.76
2024-04-18T01:43:45.114Z,3.75
2024-04-18T01:43:55.106Z,3.83
2024-04-18T01:44:05.060Z,3.61
2024-04-18T01:44:15.071Z,3.60
2024-04-18T01:44:25.901Z,3.58
2024-04-18T01:44:35.064Z,3.64
2024-04-18T01:44:55.188Z,3.60
2024-04-18T01:45:05.099Z,3.62
2024-04-18T01:45:15.046Z,3.86
2024-04-18T01:45:25.094Z,3.71
2024-04-18T01:45:35.159Z,3.68
2024-04-18T01:45:45.136Z,3.64
2024-04-18T01:45:55.975Z,3.64
2024-04-18T01:46:15.039Z,3.80
2024-04-18T01:46:25.915Z,3.64
2024-04-18T01:46:35.257Z,3.71
2024-04-18T01:46:45.053Z,3.61
2024-04-18T01:46:55.112Z,3.83
2024-04-18T01:47:05.037Z,3.67
2024-04-18T01:47:15.052Z,3.76
2024-04-18T01:47:35.092Z,3.67
2024-04-18T01:47:45.154Z,3.60
2024-04-18T01:47:55.161Z,3.54
2024-04-18T01:48:05.153Z,3.72
2024-04-18T01:48:15.260Z,3.67
2024-04-18T01:48:26.102Z,3.54
2024-04-18T01:48:36.036Z,3.65
2024-04-18T01:48:55.218Z,3.62
2024-04-18T01:49:05.947Z,3.62
2024-04-18T01:49:15.135Z,3.82
2024-04-18T01:49:25.026Z,3.72
2024-04-18T01:49:35.018Z,3.75
2024-04-18T01:49:45.014Z,3.49
2024-04-18T01:49:55.044Z,3.65
2024-04-18T01:50:15.085Z,3.54
2024-04-18T01:50:25.041Z,3.60
2024-04-18T01:50:35.132Z,3.62
2024-04-18T01:50:45.959Z,3.58
2024-04-18T01:50:55.038Z,3.58
2024-04-18T01:51:05.295Z,3.67
2024-04-18T01:51:25.061Z,3.57
2024-04-18T01:51:35.054Z,3.61
2024-04-18T01:51:45.208Z,3.68
2024-04-18T01:51:55.031Z,3.64
2024-04-18T01:52:05.037Z,3.76
2024-04-18T01:52:15.028Z,3.61
2024-04-18T01:52:35.944Z,3.82
2024-04-18T01:52:45.917Z,3.72
2024-04-18T01:52:55.010Z,3.75
2024-04-18T01:53:05.065Z,3.64
2024-04-18T01:53:15.117Z,3.47
2024-04-18T01:53:25.048Z,3.62
2024-04-18T01:53:45.109Z,3.71
2024-04-18T01:53:55.987Z,3.57
2024-04-18T01:54:05.000Z,3.54
2024-04-18T01:54:15.035Z,3.72
2024-04-18T01:54:25.231Z,3.64
2024-04-18T01:54:35.023Z,3.31
2024-04-18T01:54:45.146Z,3.68
2024-04-18T01:55:05.054Z,3.60
2024-04-18T01:55:15.084Z,3.64
2024-04-18T01:55:25.037Z,3.62
2024-04-18T01:55:35.923Z,3.61
2024-04-18T01:55:45.108Z,3.42
2024-04-18T01:55:55.060Z,3.53
2024-04-18T01:56:05.144Z,3.68
2024-04-18T01:56:15.009Z,3.67
2024-04-18T01:56:25.150Z,3.61
2024-04-18T01:56:45.005Z,3.75
2024-04-18T01:56:55.910Z,3.44
2024-04-18T01:57:05.940Z,3.53
2024-04-18T01:57:15.098Z,3.65
2024-04-18T01:57:25.062Z,3.72
2024-04-18T01:57:35.022Z,3.62
2024-04-18T01:57:45.078Z,3.80
2024-04-18T01:58:05.001Z,3.57
2024-04-18T01:58:15.012Z,3.52
2024-04-18T01:58:24.979Z,3.65
2024-04-18T01:58:35.006Z,3.68
2024-04-18T01:58:44.979Z,3.47
2024-04-18T01:58:55.000Z,3.49
2024-04-18T01:59:05.262Z,3.60
2024-04-18T01:59:24.993Z,3.47
2024-04-18T01:59:34.979Z,3.57
2024-04-18T01:59:45.006Z,3.70
2024-04-18T01:59:54.992Z,3.60
2024-04-18T02:00:05.141Z,3.58
2024-04-18T02:00:14.992Z,3.50
2024-04-18T02:00:25.031Z,3.70
2024-04-18T02:00:45.094Z,3.53
2024-04-18T02:00:55.121Z,3.61
2024-04-18T02:01:05.524Z,3.68
2024-04-18T02:01:15.137Z,3.50
2024-04-18T02:01:25.149Z,3.68
2024-04-18T02:01:35.105Z,3.64
2024-04-18T02:01:55.015Z,3.61
2024-04-18T02:02:05.013Z,3.58
2024-04-18T02:02:14.975Z,3.60
2024-04-18T02:02:24.973Z,3.44
2024-04-18T02:02:34.957Z,3.57
2024-04-18T02:02:45.000Z,3.62
2024-04-18T02:03:08.028Z,3.58
2024-04-18T02:03:15.954Z,3.62
2024-04-18T02:03:25.058Z,3.54
2024-04-18T02:03:35.049Z,3.64
2024-04-18T02:03:45.199Z,3.62
2024-04-18T02:03:55.160Z,3.71
2024-04-18T02:04:15.075Z,3.60
2024-04-18T02:04:25.103Z,3.76
2024-04-18T02:04:35.082Z,3.57
2024-04-18T02:04:46.054Z,3.42
2024-04-18T02:04:55.036Z,3.65
2024-04-18T02:05:05.032Z,3.58
2024-04-18T02:05:16.015Z,3.65
2024-04-18T02:05:34.966Z,3.53
2024-04-18T02:05:44.956Z,3.57
2024-04-18T02:05:54.943Z,3.52
2024-04-18T02:06:04.975Z,3.53
2024-04-18T02:06:15.121Z,3.61
2024-04-18T02:06:25.092Z,3.52
2024-04-18T02:06:34.966Z,3.53
2024-04-18T02:06:45.287Z,3.70
2024-04-18T02:06:54.976Z,3.65
2024-04-18T02:07:15.956Z,3.50
2024-04-18T02:07:25.147Z,3.57
2024-04-18T02:07:34.963Z,3.61
2024-04-18T02:07:44.951Z,3.54
2024-04-18T02:07:54.966Z,3.42
2024-04-18T02:08:04.955Z,3.72
2024-04-18T02:08:24.961Z,3.52
2024-04-18T02:08:34.951Z,3.53
2024-04-18T02:08:44.946Z,3.58
2024-04-18T02:08:54.952Z,3.70
2024-04-18T02:09:04.953Z,3.58
2024-04-18T02:09:15.063Z,3.50
2024-04-18T02:09:26.064Z,3.40
2024-04-18T02:09:35.228Z,3.44
2024-04-18T02:09:54.978Z,3.72
2024-04-18T02:10:04.929Z,3.64
2024-04-18T02:10:14.978Z,3.64
2024-04-18T02:10:25.929Z,3.40
2024-04-18T02:10:34.944Z,3.52
2024-04-18T02:10:44.977Z,3.53
2024-04-18T02:10:54.988Z,3.60
2024-04-18T02:11:04.967Z,3.62
2024-04-18T02:11:16.083Z,3.61
2024-04-18T02:11:35.115Z,3.52
2024-04-18T02:11:45.157Z,3.62
2024-04-18T02:11:54.942Z,3.61
2024-04-18T02:12:04.939Z,3.46
2024-04-18T02:12:14.995Z,3.44
2024-04-18T02:12:24.962Z,3.40
2024-04-18T02:12:45.019Z,3.47
2024-04-18T02:12:54.996Z,3.31
2024-04-18T02:13:04.965Z,3.60
2024-04-18T02:13:14.995Z,3.47
2024-04-18T02:13:24.955Z,3.53
2024-04-18T02:13:35.038Z,3.53
2024-04-18T02:13:54.969Z,3.46
2024-04-18T02:14:04.965Z,3.42
2024-04-18T02:14:14.978Z,3.57
2024-04-18T02:14:24.962Z,3.52
2024-04-18T02:14:34.928Z,3.58
2024-04-18T02:14:44.929Z,3.47
2024-04-18T02:15:04.907Z,3.58
2024-04-18T02:15:14.962Z,3.40
2024-04-18T02:15:24.943Z,3.62
2024-04-18T02:15:35.476Z,3.50
2024-04-18T02:15:45.202Z,3.47
2024-04-18T02:15:54.913Z,3.52
2024-04-18T02:16:14.938Z,3.50
2024-04-18T02:16:24.929Z,3.50
2024-04-18T02:16:34.951Z,3.54
2024-04-18T02:16:44.937Z,3.43
2024-04-18T02:16:54.957Z,3.49
2024-04-18T02:17:04.993Z,3.52
2024-04-18T02:17:15.006Z,3.42
2024-04-18T02:17:25.037Z,3.44
2024-04-18T02:17:45.099Z,3.52
2024-04-18T02:17:55.090Z,3.43
2024-04-18T02:18:05.470Z,3.42
2024-04-18T02:18:15.136Z,3.43
2024-04-18T02:18:24.950Z,3.53
2024-04-18T02:18:35.017Z,3.49
2024-04-18T02:18:55.070Z,3.43
2024-04-18T02:19:04.965Z,3.39
2024-04-18T02:19:14.956Z,3.49
2024-04-18T02:19:24.955Z,3.46
2024-04-18T02:19:35.445Z,3.58
2024-04-18T02:19:45.458Z,3.54
2024-04-18T02:20:04.955Z,3.43
2024-04-18T02:20:14.896Z,3.34
2024-04-18T02:20:24.893Z,3.47
2024-04-18T02:20:34.908Z,3.43
2024-04-18T02:20:44.979Z,3.40
2024-04-18T02:20:54.909Z,3.50
2024-04-18T02:21:15.003Z,3.57
2024-04-18T02:21:24.954Z,3.30
2024-04-18T02:21:34.916Z,3.49
2024-04-18T02:21:45.092Z,3.50
2024-04-18T02:21:54.904Z,3.43
2024-04-18T02:22:04.903Z,3.33
2024-04-18T02:22:24.913Z,3.36
2024-04-18T02:22:34.898Z,3.49
2024-04-18T02:22:44.895Z,3.47
2024-04-18T02:22:54.903Z,3.44
2024-04-18T02:23:04.900Z,3.62
2024-04-18T02:23:14.882Z,3.65
2024-04-18T02:23:34.941Z,3.53
2024-04-18T02:23:44.893Z,3.67
2024-04-18T02:23:55.483Z,3.61
2024-04-18T02:24:04.912Z,3.52
2024-04-18T02:24:14.938Z,3.57
2024-04-18T02:24:24.906Z,3.53
2024-04-18T02:24:44.978Z,3.44
2024-04-18T02:24:54.931Z,3.50
2024-04-18T02:25:04.912Z,3.54
2024-04-18T02:25:14.895Z,3.52
2024-04-18T02:25:24.882Z,3.53
2024-04-18T02:25:34.868Z,3.42
2024-04-18T02:25:44.979Z,3.52
2024-04-18T02:26:04.996Z,3.64
2024-04-18T02:26:14.912Z,3.47
2024-04-18T02:26:24.879Z,3.46
2024-04-18T02:26:34.886Z,3.52
2024-04-18T02:26:45.418Z,3.47
2024-04-18T02:26:55.024Z,3.60
2024-04-18T02:27:15.067Z,3.50
2024-04-18T02:27:24.931Z,3.57
2024-04-18T02:27:34.937Z,3.46
2024-04-18T02:27:45.215Z,3.34
2024-04-18T02:27:55.420Z,3.62
2024-04-18T02:28:05.406Z,3.43
2024-04-18T02:28:24.878Z,3.58
2024-04-18T02:28:35.416Z,3.52
2024-04-18T02:28:44.929Z,3.50
2024-04-18T02:28:54.852Z,3.57
2024-04-18T02:29:04.881Z,3.40
2024-04-18T02:29:14.982Z,3.49
2024-04-18T02:29:25.425Z,3.57
2024-04-18T02:29:44.874Z,3.43
2024-04-18T02:29:54.867Z,3.58
2024-04-18T02:30:04.917Z,3.54
2024-04-18T02:30:14.992Z,3.64
2024-04-18T02:30:27.100Z,3.64
2024-04-18T02:30:34.941Z,3.42
2024-04-18T02:30:44.957Z,3.53
2024-04-18T02:31:04.939Z,3.64
2024-04-18T02:31:14.902Z,3.49
2024-04-18T02:31:24.872Z,3.49
2024-04-18T02:31:34.943Z,3.61
2024-04-18T02:31:44.941Z,3.44
2024-04-18T02:31:54.911Z,3.53
2024-04-18T02:32:04.927Z,3.62
2024-04-18T02:32:15.704Z,3.58
2024-04-18T02:32:35.528Z,3.43
2024-04-18T02:32:45.543Z,3.49
2024-04-18T02:32:54.884Z,3.54